createdAt,value
2023-04-12T00:02:22.053Z,9.20
2023-04-12T00:04:55.235Z,9.20
2023-04-12T00:07:25.020Z,8.90
2023-04-12T00:09:51.639Z,8.70
2023-04-12T00:12:19.257Z,8.40
2023-04-12T00:14:46.136Z,8.50
2023-04-12T00:17:12.829Z,8.50
2023-04-12T00:19:43.086Z,8.60
2023-04-12T00:22:09.772Z,8.60
2023-04-12T00:24:38.358Z,8.60
2023-04-12T00:27:05.919Z,8.40
2023-04-12T00:29:32.850Z,8.50
2023-04-12T00:32:03.439Z,8.40
2023-04-12T00:34:32.674Z,8.50
2023-04-12T00:36:59.897Z,8.50
2023-04-12T00:39:26.533Z,8.70
2023-04-12T00:41:53.109Z,8.80
2023-04-12T00:44:24.679Z,8.60
2023-04-12T00:46:51.408Z,8.60
2023-04-12T00:49:18.054Z,8.60
2023-04-12T00:51:44.796Z,8.70
2023-04-12T00:54:11.549Z,8.90
2023-04-12T00:56:38.315Z,8.90
2023-04-12T00:59:07.696Z,8.70
2023-04-12T01:01:34.501Z,8.70
2023-04-12T01:04:04.847Z,8.60
2023-04-12T01:06:47.351Z,8.60
2023-04-12T01:09:27.361Z,8.80
2023-04-12T01:11:57.244Z,8.80
2023-04-12T01:14:33.897Z,8.80
2023-04-12T01:17:03.710Z,9.00
2023-04-12T01:19:35.978Z,9.00
2023-04-12T01:22:21.341Z,9.10
2023-04-12T01:25:07.110Z,9.10
2023-04-12T01:27:33.655Z,9.00
2023-04-12T01:30:01.198Z,9.20
2023-04-12T01:32:27.863Z,9.10
2023-04-12T01:34:57.771Z,9.10
2023-04-12T01:37:24.410Z,9.30
2023-04-12T01:39:51.297Z,9.30
2023-04-12T01:42:23.405Z,9.30
2023-04-12T01:44:52.606Z,9.40
2023-04-12T01:47:21.372Z,9.40
2023-04-12T01:50:03.220Z,9.50
2023-04-12T01:52:31.390Z,9.50
2023-04-12T01:55:00.906Z,9.50
2023-04-12T01:57:27.758Z,9.60
2023-04-12T01:59:56.011Z,9.60
2023-04-12T02:02:25.494Z,9.60
2023-04-12T02:04:52.493Z,9.60
2023-04-12T02:07:20.451Z,9.60
2023-04-12T02:09:47.058Z,9.60
2023-04-12T02:12:13.616Z,9.60
2023-04-12T02:14:40.130Z,9.70
2023-04-12T02:17:08.037Z,9.70
2023-04-12T02:19:34.651Z,9.70
2023-04-12T02:22:02.087Z,9.70
2023-04-12T02:24:28.655Z,9.70
2023-04-12T02:26:57.998Z,9.80
2023-04-12T02:29:24.737Z,9.70
2023-04-12T02:31:51.322Z,9.80
2023-04-12T02:34:21.372Z,9.80
2023-04-12T02:36:48.661Z,9.80
2023-04-12T02:39:18.819Z,9.80
2023-04-12T02:41:45.965Z,9.70
2023-04-12T02:44:15.174Z,9.70
2023-04-12T02:46:43.926Z,9.80
2023-04-12T02:49:12.918Z,9.80
2023-04-12T02:51:42.104Z,9.80
2023-04-12T02:54:08.708Z,9.80
2023-04-12T02:56:36.037Z,9.70
2023-04-12T02:59:02.851Z,9.70
2023-04-12T03:01:34.231Z,9.80
2023-04-12T03:04:02.168Z,9.70
2023-04-12T03:06:30.165Z,9.60
2023-04-12T03:08:58.092Z,9.70
2023-04-12T03:11:24.630Z,9.70
2023-04-12T03:13:52.315Z,9.70
2023-04-12T03:16:23.421Z,9.70
2023-04-12T03:18:52.820Z,9.60
2023-04-12T03:21:19.562Z,9.60
2023-04-12T03:23:48.580Z,9.60
2023-04-12T03:26:20.352Z,9.60
2023-04-12T03:28:47.575Z,9.70
2023-04-12T03:31:14.177Z,9.60
2023-04-12T03:33:40.933Z,9.70
2023-04-12T03:36:07.838Z,9.70
2023-04-12T03:38:36.613Z,9.80
2023-04-12T03:41:03.223Z,9.60
2023-04-12T03:43:35.951Z,9.60
2023-04-12T03:46:08.129Z,9.60
2023-04-12T03:48:34.971Z,9.60
2023-04-12T03:51:08.514Z,9.60
2023-04-12T03:53:35.278Z,9.60
2023-04-12T03:56:01.869Z,9.60
2023-04-12T03:58:30.845Z,9.50
2023-04-12T04:00:58.177Z,9.60
2023-04-12T04:03:26.996Z,9.50
2023-04-12T04:05:53.944Z,9.50
2023-04-12T04:08:23.046Z,9.40
2023-04-12T04:10:49.651Z,9.50
2023-04-12T04:13:16.216Z,9.50
2023-04-12T04:15:42.863Z,9.50
2023-04-12T04:18:09.430Z,9.50
2023-04-12T04:20:36.032Z,9.50
2023-04-12T04:23:02.801Z,9.50
2023-04-12T04:25:33.399Z,9.50
2023-04-12T04:28:02.636Z,9.40
2023-04-12T04:30:29.221Z,9.40
2023-04-12T04:32:55.950Z,9.50
2023-04-12T04:35:26.625Z,9.40
2023-04-12T04:37:53.816Z,9.40
2023-04-12T04:40:22.017Z,9.30
2023-04-12T04:42:54.305Z,9.40
2023-04-12T04:45:27.625Z,9.30
2023-04-12T04:47:54.817Z,9.30
2023-04-12T04:50:28.068Z,9.30
2023-04-12T04:52:54.711Z,9.30
2023-04-12T04:55:21.820Z,9.30
2023-04-12T04:57:50.658Z,9.20
2023-04-12T05:00:21.534Z,9.10
2023-04-12T05:02:48.453Z,9.20
2023-04-12T05:05:16.163Z,9.20
2023-04-12T05:07:45.658Z,9.20
2023-04-12T05:10:12.341Z,9.10
2023-04-12T05:12:41.320Z,9.20
2023-04-12T05:15:11.525Z,9.20
2023-04-12T05:17:39.034Z,9.20
2023-04-12T05:20:08.096Z,9.20
2023-04-12T05:22:35.224Z,9.20
2023-04-12T05:25:04.330Z,9.20
2023-04-12T05:27:31.116Z,9.20
